sensor_id;sensor_type;location;lat;lon;timestamp;P1;durP1;ratioP1;P2;durP2;ratioP2
20369;SDS011;10344;47.592;9.600;2022-12-07T00:00:54;19.42;;;14.63;;
20369;SDS011;10344;47.592;9.600;2022-12-07T00:03:20;20.05;;;14.38;;
20369;SDS011;10344;47.592;9.600;2022-12-07T00:05:46;19.47;;;14.20;;
20369;SDS011;10344;47.592;9.600;2022-12-07T00:08:12;17.23;;;12.95;;
20369;SDS011;10344;47.592;9.600;2022-12-07T00:10:37;17.90;;;12.90;;
20369;SDS011;10344;47.592;9.600;2022-12-07T00:13:05;20.73;;;15.25;;
20369;SDS011;10344;47.592;9.600;2022-12-07T00:15:32;19.50;;;14.93;;
20369;SDS011;10344;47.592;9.600;2022-12-07T00:17:59;17.80;;;13.43;;
20369;SDS011;10344;47.592;9.600;2022-12-07T00:20:25;20.73;;;14.60;;
20369;SDS011;10344;47.592;9.600;2022-12-07T00:22:50;17.70;;;13.35;;
20369;SDS011;10344;47.592;9.600;2022-12-07T00:25:16;17.30;;;12.97;;
20369;SDS011;10344;47.592;9.600;2022-12-07T00:27:41;20.48;;;14.77;;
20369;SDS011;10344;47.592;9.600;2022-12-07T00:30:07;15.43;;;12.52;;
20369;SDS011;10344;47.592;9.600;2022-12-07T00:32:33;22.13;;;16.50;;
20369;SDS011;10344;47.592;9.600;2022-12-07T00:34:59;20.95;;;15.32;;
20369;SDS011;10344;47.592;9.600;2022-12-07T00:37:24;21.67;;;15.07;;
20369;SDS011;10344;47.592;9.600;2022-12-07T00:39:52;23.90;;;16.35;;
20369;SDS011;10344;47.592;9.600;2022-12-07T00:42:17;19.70;;;14.40;;
20369;SDS011;10344;47.592;9.600;2022-12-07T00:44:43;22.00;;;16.00;;
20369;SDS011;10344;47.592;9.600;2022-12-07T00:47:09;21.00;;;15.63;;
20369;SDS011;10344;47.592;9.600;2022-12-07T00:49:35;22.67;;;15.15;;
20369;SDS011;10344;47.592;9.600;2022-12-07T00:52:00;22.10;;;15.63;;
20369;SDS011;10344;47.592;9.600;2022-12-07T00:54:26;20.63;;;15.27;;
20369;SDS011;10344;47.592;9.600;2022-12-07T00:56:52;22.83;;;15.88;;
20369;SDS011;10344;47.592;9.600;2022-12-07T00:59:19;24.98;;;17.05;;
20369;SDS011;10344;47.592;9.600;2022-12-07T01:01:45;23.67;;;16.93;;
20369;SDS011;10344;47.592;9.600;2022-12-07T01:04:10;22.05;;;16.15;;
20369;SDS011;10344;47.592;9.600;2022-12-07T01:06:36;25.50;;;17.20;;
20369;SDS011;10344;47.592;9.600;2022-12-07T01:09:02;21.93;;;15.53;;
20369;SDS011;10344;47.592;9.600;2022-12-07T01:11:29;21.38;;;15.40;;
20369;SDS011;10344;47.592;9.600;2022-12-07T01:13:56;23.67;;;17.02;;
20369;SDS011;10344;47.592;9.600;2022-12-07T01:16:24;23.20;;;16.27;;
20369;SDS011;10344;47.592;9.600;2022-12-07T01:18:52;22.38;;;15.93;;
20369;SDS011;10344;47.592;9.600;2022-12-07T01:21:20;21.73;;;15.53;;
20369;SDS011;10344;47.592;9.600;2022-12-07T01:23:48;22.38;;;15.95;;
20369;SDS011;10344;47.592;9.600;2022-12-07T01:26:15;23.60;;;16.23;;
20369;SDS011;10344;47.592;9.600;2022-12-07T01:28:48;25.15;;;17.80;;
20369;SDS011;10344;47.592;9.600;2022-12-07T01:31:16;22.52;;;15.55;;
20369;SDS011;10344;47.592;9.600;2022-12-07T01:33:45;22.23;;;15.90;;
20369;SDS011;10344;47.592;9.600;2022-12-07T01:38:43;24.05;;;16.63;;
20369;SDS011;10344;47.592;9.600;2022-12-07T01:41:10;25.10;;;16.65;;
20369;SDS011;10344;47.592;9.600;2022-12-07T01:43:36;22.40;;;16.48;;
20369;SDS011;10344;47.592;9.600;2022-12-07T01:46:22;19.98;;;14.52;;
20369;SDS011;10344;47.592;9.600;2022-12-07T01:48:50;22.17;;;16.03;;
20369;SDS011;10344;47.592;9.600;2022-12-07T01:51:15;22.63;;;16.67;;
20369;SDS011;10344;47.592;9.600;2022-12-07T01:53:42;26.20;;;17.80;;
20369;SDS011;10344;47.592;9.600;2022-12-07T01:56:14;20.65;;;15.20;;
20369;SDS011;10344;47.592;9.600;2022-12-07T01:58:47;22.67;;;16.23;;
20369;SDS011;10344;47.592;9.600;2022-12-07T02:01:14;24.13;;;17.83;;
20369;SDS011;10344;47.592;9.600;2022-12-07T02:03:41;24.80;;;17.65;;
20369;SDS011;10344;47.592;9.600;2022-12-07T02:06:08;24.63;;;16.85;;
20369;SDS011;10344;47.592;9.600;2022-12-07T02:08:36;24.30;;;17.00;;
20369;SDS011;10344;47.592;9.600;2022-12-07T02:11:03;26.30;;;18.42;;
20369;SDS011;10344;47.592;9.600;2022-12-07T02:13:33;23.95;;;16.65;;
20369;SDS011;10344;47.592;9.600;2022-12-07T02:18:59;28.40;;;19.17;;
20369;SDS011;10344;47.592;9.600;2022-12-07T02:21:52;27.02;;;18.27;;
20369;SDS011;10344;47.592;9.600;2022-12-07T02:24:37;22.55;;;16.08;;
20369;SDS011;10344;47.592;9.600;2022-12-07T02:32:37;21.40;;;15.95;;
20369;SDS011;10344;47.592;9.600;2022-12-07T02:38:23;15.68;;;12.25;;
20369;SDS011;10344;47.592;9.600;2022-12-07T02:40:57;18.10;;;13.30;;
20369;SDS011;10344;47.592;9.600;2022-12-07T02:43:43;18.52;;;12.80;;
20369;SDS011;10344;47.592;9.600;2022-12-07T02:46:17;17.85;;;13.05;;
20369;SDS011;10344;47.592;9.600;2022-12-07T02:48:50;17.80;;;12.57;;
20369;SDS011;10344;47.592;9.600;2022-12-07T02:51:20;15.77;;;12.20;;
20369;SDS011;10344;47.592;9.600;2022-12-07T02:53:47;14.50;;;11.13;;
20369;SDS011;10344;47.592;9.600;2022-12-07T03:02:58;15.40;;;11.02;;
20369;SDS011;10344;47.592;9.600;2022-12-07T03:10:32;14.38;;;10.63;;
20369;SDS011;10344;47.592;9.600;2022-12-07T03:13:16;15.50;;;10.43;;
20369;SDS011;10344;47.592;9.600;2022-12-07T03:18:37;14.43;;;10.57;;
20369;SDS011;10344;47.592;9.600;2022-12-07T03:21:26;14.32;;;11.05;;
20369;SDS011;10344;47.592;9.600;2022-12-07T03:23:58;14.68;;;10.98;;
20369;SDS011;10344;47.592;9.600;2022-12-07T03:26:34;16.50;;;11.52;;
20369;SDS011;10344;47.592;9.600;2022-12-07T03:29:08;14.40;;;11.57;;
20369;SDS011;10344;47.592;9.600;2022-12-07T03:31:41;15.13;;;11.30;;
20369;SDS011;10344;47.592;9.600;2022-12-07T03:34:11;15.00;;;11.00;;
20369;SDS011;10344;47.592;9.600;2022-12-07T03:36:45;15.98;;;11.25;;
20369;SDS011;10344;47.592;9.600;2022-12-07T03:39:33;14.73;;;11.13;;
20369;SDS011;10344;47.592;9.600;2022-12-07T03:42:04;14.40;;;10.43;;
20369;SDS011;10344;47.592;9.600;2022-12-07T03:44:34;14.70;;;11.07;;
20369;SDS011;10344;47.592;9.600;2022-12-07T03:47:11;13.15;;;10.50;;
20369;SDS011;10344;47.592;9.600;2022-12-07T03:50:15;15.05;;;10.60;;
20369;SDS011;10344;47.592;9.600;2022-12-07T03:52:54;15.38;;;11.30;;
20369;SDS011;10344;47.592;9.600;2022-12-07T03:55:27;15.85;;;11.73;;
20369;SDS011;10344;47.592;9.600;2022-12-07T03:58:05;15.82;;;12.13;;
20369;SDS011;10344;47.592;9.600;2022-12-07T04:00:35;18.05;;;13.32;;
20369;SDS011;10344;47.592;9.600;2022-12-07T04:03:04;18.73;;;14.15;;
20369;SDS011;10344;47.592;9.600;2022-12-07T04:05:29;17.02;;;12.32;;
20369;SDS011;10344;47.592;9.600;2022-12-07T04:07:58;16.92;;;12.48;;
20369;SDS011;10344;47.592;9.600;2022-12-07T04:10:26;18.75;;;12.75;;
20369;SDS011;10344;47.592;9.600;2022-12-07T04:12:52;16.92;;;11.63;;
20369;SDS011;10344;47.592;9.600;2022-12-07T04:15:17;19.58;;;12.63;;
20369;SDS011;10344;47.592;9.600;2022-12-07T04:17:43;16.58;;;12.13;;
20369;SDS011;10344;47.592;9.600;2022-12-07T04:20:09;18.13;;;12.50;;
20369;SDS011;10344;47.592;9.600;2022-12-07T04:22:35;17.25;;;12.13;;
20369;SDS011;10344;47.592;9.600;2022-12-07T04:25:00;15.15;;;10.98;;
20369;SDS011;10344;47.592;9.600;2022-12-07T04:27:26;16.03;;;11.47;;
20369;SDS011;10344;47.592;9.600;2022-12-07T04:29:52;16.15;;;11.93;;
20369;SDS011;10344;47.592;9.600;2022-12-07T04:32:22;15.50;;;11.40;;
20369;SDS011;10344;47.592;9.600;2022-12-07T04:34:48;14.45;;;11.07;;
20369;SDS011;10344;47.592;9.600;2022-12-07T04:37:14;15.80;;;10.73;;
20369;SDS011;10344;47.592;9.600;2022-12-07T04:39:39;15.32;;;11.13;;
20369;SDS011;10344;47.592;9.600;2022-12-07T04:42:09;14.85;;;11.20;;
20369;SDS011;10344;47.592;9.600;2022-12-07T04:44:35;15.82;;;11.52;;
20369;SDS011;10344;47.592;9.600;2022-12-07T04:47:01;16.33;;;12.05;;
20369;SDS011;10344;47.592;9.600;2022-12-07T04:49:26;18.35;;;12.85;;
20369;SDS011;10344;47.592;9.600;2022-12-07T04:51:52;17.93;;;12.73;;
20369;SDS011;10344;47.592;9.600;2022-12-07T04:54:20;19.52;;;13.52;;
20369;SDS011;10344;47.592;9.600;2022-12-07T04:56:46;17.52;;;12.38;;
20369;SDS011;10344;47.592;9.600;2022-12-07T04:59:12;19.53;;;13.70;;
20369;SDS011;10344;47.592;9.600;2022-12-07T05:01:39;18.55;;;13.43;;
20369;SDS011;10344;47.592;9.600;2022-12-07T05:04:05;22.05;;;14.40;;
20369;SDS011;10344;47.592;9.600;2022-12-07T05:06:31;22.48;;;15.00;;
20369;SDS011;10344;47.592;9.600;2022-12-07T05:08:59;25.17;;;16.13;;
20369;SDS011;10344;47.592;9.600;2022-12-07T05:11:25;26.13;;;17.07;;
20369;SDS011;10344;47.592;9.600;2022-12-07T05:14:03;25.38;;;17.67;;
20369;SDS011;10344;47.592;9.600;2022-12-07T05:16:43;27.90;;;19.25;;
20369;SDS011;10344;47.592;9.600;2022-12-07T05:19:12;25.67;;;17.55;;
20369;SDS011;10344;47.592;9.600;2022-12-07T05:21:40;23.23;;;16.13;;
20369;SDS011;10344;47.592;9.600;2022-12-07T05:24:06;22.87;;;15.43;;
20369;SDS011;10344;47.592;9.600;2022-12-07T05:26:33;21.23;;;14.95;;
20369;SDS011;10344;47.592;9.600;2022-12-07T05:28:59;18.50;;;13.10;;
20369;SDS011;10344;47.592;9.600;2022-12-07T05:31:25;20.57;;;14.17;;
20369;SDS011;10344;47.592;9.600;2022-12-07T05:33:51;20.25;;;14.40;;
20369;SDS011;10344;47.592;9.600;2022-12-07T05:36:17;19.63;;;14.13;;
20369;SDS011;10344;47.592;9.600;2022-12-07T05:38:42;15.90;;;11.80;;
20369;SDS011;10344;47.592;9.600;2022-12-07T05:41:08;18.08;;;12.80;;
20369;SDS011;10344;47.592;9.600;2022-12-07T05:43:56;15.73;;;11.98;;
20369;SDS011;10344;47.592;9.600;2022-12-07T05:46:22;18.37;;;12.97;;
20369;SDS011;10344;47.592;9.600;2022-12-07T05:48:47;18.15;;;12.65;;
20369;SDS011;10344;47.592;9.600;2022-12-07T05:51:13;19.40;;;13.33;;
20369;SDS011;10344;47.592;9.600;2022-12-07T05:53:38;17.30;;;12.27;;
20369;SDS011;10344;47.592;9.600;2022-12-07T05:56:06;18.05;;;12.70;;
20369;SDS011;10344;47.592;9.600;2022-12-07T05:58:32;21.07;;;14.40;;
20369;SDS011;10344;47.592;9.600;2022-12-07T06:01:16;20.02;;;13.70;;
20369;SDS011;10344;47.592;9.600;2022-12-07T06:03:42;18.60;;;13.18;;
20369;SDS011;10344;47.592;9.600;2022-12-07T06:06:07;18.00;;;12.50;;
20369;SDS011;10344;47.592;9.600;2022-12-07T06:08:33;18.20;;;12.57;;
20369;SDS011;10344;47.592;9.600;2022-12-07T06:10:58;16.90;;;12.15;;
20369;SDS011;10344;47.592;9.600;2022-12-07T06:13:44;15.73;;;11.93;;
20369;SDS011;10344;47.592;9.600;2022-12-07T06:16:10;18.00;;;13.07;;
20369;SDS011;10344;47.592;9.600;2022-12-07T06:18:38;16.80;;;12.68;;
20369;SDS011;10344;47.592;9.600;2022-12-07T06:21:03;17.37;;;13.37;;
20369;SDS011;10344;47.592;9.600;2022-12-07T06:23:29;18.92;;;13.52;;
20369;SDS011;10344;47.592;9.600;2022-12-07T06:25:54;17.98;;;13.32;;
20369;SDS011;10344;47.592;9.600;2022-12-07T06:28:20;17.03;;;12.80;;
20369;SDS011;10344;47.592;9.600;2022-12-07T06:30:46;19.38;;;14.18;;
20369;SDS011;10344;47.592;9.600;2022-12-07T06:33:11;19.38;;;13.57;;
20369;SDS011;10344;47.592;9.600;2022-12-07T06:35:37;19.30;;;13.13;;
20369;SDS011;10344;47.592;9.600;2022-12-07T06:38:02;20.48;;;14.82;;
20369;SDS011;10344;47.592;9.600;2022-12-07T06:40:28;20.77;;;14.90;;
20369;SDS011;10344;47.592;9.600;2022-12-07T06:42:54;20.90;;;14.95;;
20369;SDS011;10344;47.592;9.600;2022-12-07T06:45:19;23.27;;;16.10;;
20369;SDS011;10344;47.592;9.600;2022-12-07T06:47:45;24.83;;;16.30;;
20369;SDS011;10344;47.592;9.600;2022-12-07T06:50:10;21.08;;;15.23;;
20369;SDS011;10344;47.592;9.600;2022-12-07T06:52:36;23.30;;;16.00;;
20369;SDS011;10344;47.592;9.600;2022-12-07T06:55:02;21.57;;;15.87;;
20369;SDS011;10344;47.592;9.600;2022-12-07T06:57:28;21.17;;;15.43;;
20369;SDS011;10344;47.592;9.600;2022-12-07T06:59:53;21.95;;;15.15;;
20369;SDS011;10344;47.592;9.600;2022-12-07T07:02:19;22.17;;;15.20;;
20369;SDS011;10344;47.592;9.600;2022-12-07T07:04:44;21.15;;;14.77;;
20369;SDS011;10344;47.592;9.600;2022-12-07T07:07:10;19.75;;;13.88;;
20369;SDS011;10344;47.592;9.600;2022-12-07T07:09:36;19.97;;;14.07;;
20369;SDS011;10344;47.592;9.600;2022-12-07T07:12:01;21.13;;;15.00;;
20369;SDS011;10344;47.592;9.600;2022-12-07T07:14:27;18.87;;;13.47;;
20369;SDS011;10344;47.592;9.600;2022-12-07T07:16:52;17.48;;;13.07;;
20369;SDS011;10344;47.592;9.600;2022-12-07T07:19:18;15.45;;;12.25;;
20369;SDS011;10344;47.592;9.600;2022-12-07T07:21:46;16.23;;;11.93;;
20369;SDS011;10344;47.592;9.600;2022-12-07T07:24:11;14.70;;;11.13;;
20369;SDS011;10344;47.592;9.600;2022-12-07T07:26:37;15.90;;;11.50;;
20369;SDS011;10344;47.592;9.600;2022-12-07T07:29:03;16.52;;;12.77;;
20369;SDS011;10344;47.592;9.600;2022-12-07T07:31:29;15.77;;;12.18;;
20369;SDS011;10344;47.592;9.600;2022-12-07T07:33:54;16.80;;;12.77;;
20369;SDS011;10344;47.592;9.600;2022-12-07T07:36:20;17.50;;;12.50;;
20369;SDS011;10344;47.592;9.600;2022-12-07T07:38:45;16.20;;;12.90;;
20369;SDS011;10344;47.592;9.600;2022-12-07T07:41:11;17.80;;;13.70;;
20369;SDS011;10344;47.592;9.600;2022-12-07T07:43:37;16.55;;;12.30;;
20369;SDS011;10344;47.592;9.600;2022-12-07T07:46:02;17.58;;;13.10;;
20369;SDS011;10344;47.592;9.600;2022-12-07T07:48:28;18.70;;;14.17;;
20369;SDS011;10344;47.592;9.600;2022-12-07T07:50:54;17.52;;;13.40;;
20369;SDS011;10344;47.592;9.600;2022-12-07T07:53:19;18.80;;;13.82;;
20369;SDS011;10344;47.592;9.600;2022-12-07T07:55:52;21.15;;;16.00;;
20369;SDS011;10344;47.592;9.600;2022-12-07T07:58:21;21.55;;;15.80;;
20369;SDS011;10344;47.592;9.600;2022-12-07T08:00:47;19.43;;;15.03;;
20369;SDS011;10344;47.592;9.600;2022-12-07T08:03:13;20.08;;;15.68;;
20369;SDS011;10344;47.592;9.600;2022-12-07T08:05:38;21.30;;;15.33;;
20369;SDS011;10344;47.592;9.600;2022-12-07T08:08:04;21.38;;;16.65;;
20369;SDS011;10344;47.592;9.600;2022-12-07T08:10:30;22.47;;;16.30;;
20369;SDS011;10344;47.592;9.600;2022-12-07T08:12:59;23.08;;;16.27;;
20369;SDS011;10344;47.592;9.600;2022-12-07T08:15:39;24.02;;;16.17;;
20369;SDS011;10344;47.592;9.600;2022-12-07T08:18:06;21.70;;;15.65;;
20369;SDS011;10344;47.592;9.600;2022-12-07T08:20:33;24.48;;;16.55;;
20369;SDS011;10344;47.592;9.600;2022-12-07T08:23:02;23.02;;;16.13;;
20369;SDS011;10344;47.592;9.600;2022-12-07T08:25:28;22.13;;;15.75;;
20369;SDS011;10344;47.592;9.600;2022-12-07T08:27:54;22.02;;;16.08;;
20369;SDS011;10344;47.592;9.600;2022-12-07T08:30:20;24.27;;;17.20;;
20369;SDS011;10344;47.592;9.600;2022-12-07T08:32:47;23.02;;;16.33;;
20369;SDS011;10344;47.592;9.600;2022-12-07T08:35:13;22.38;;;15.55;;
20369;SDS011;10344;47.592;9.600;2022-12-07T08:37:39;23.10;;;16.92;;
20369;SDS011;10344;47.592;9.600;2022-12-07T08:40:08;23.20;;;16.40;;
20369;SDS011;10344;47.592;9.600;2022-12-07T08:42:35;23.10;;;16.38;;
20369;SDS011;10344;47.592;9.600;2022-12-07T08:45:11;20.58;;;15.20;;
20369;SDS011;10344;47.592;9.600;2022-12-07T08:47:40;20.48;;;14.65;;
20369;SDS011;10344;47.592;9.600;2022-12-07T08:50:11;21.42;;;14.85;;
20369;SDS011;10344;47.592;9.600;2022-12-07T08:52:37;23.05;;;15.52;;
20369;SDS011;10344;47.592;9.600;2022-12-07T08:55:04;23.67;;;16.13;;
20369;SDS011;10344;47.592;9.600;2022-12-07T08:57:31;22.10;;;15.02;;
20369;SDS011;10344;47.592;9.600;2022-12-07T08:59:59;21.48;;;15.65;;
20369;SDS011;10344;47.592;9.600;2022-12-07T09:02:25;21.60;;;15.75;;
20369;SDS011;10344;47.592;9.600;2022-12-07T09:04:51;23.67;;;15.57;;
20369;SDS011;10344;47.592;9.600;2022-12-07T09:07:17;21.10;;;15.18;;
20369;SDS011;10344;47.592;9.600;2022-12-07T09:09:42;23.58;;;15.45;;
20369;SDS011;10344;47.592;9.600;2022-12-07T09:12:08;21.63;;;15.70;;
20369;SDS011;10344;47.592;9.600;2022-12-07T09:14:35;20.55;;;14.93;;
20369;SDS011;10344;47.592;9.600;2022-12-07T09:17:11;21.90;;;15.73;;
20369;SDS011;10344;47.592;9.600;2022-12-07T09:19:37;19.95;;;14.55;;
20369;SDS011;10344;47.592;9.600;2022-12-07T09:22:03;22.55;;;15.95;;
20369;SDS011;10344;47.592;9.600;2022-12-07T09:24:30;21.17;;;14.83;;
20369;SDS011;10344;47.592;9.600;2022-12-07T09:26:57;21.52;;;15.40;;
20369;SDS011;10344;47.592;9.600;2022-12-07T09:29:23;20.45;;;14.65;;
20369;SDS011;10344;47.592;9.600;2022-12-07T09:31:50;23.25;;;16.00;;
20369;SDS011;10344;47.592;9.600;2022-12-07T09:34:16;19.83;;;15.18;;
20369;SDS011;10344;47.592;9.600;2022-12-07T09:36:42;24.30;;;16.30;;
20369;SDS011;10344;47.592;9.600;2022-12-07T09:39:08;22.67;;;15.83;;
20369;SDS011;10344;47.592;9.600;2022-12-07T09:41:34;25.05;;;17.33;;
20369;SDS011;10344;47.592;9.600;2022-12-07T09:44:05;23.03;;;16.20;;
20369;SDS011;10344;47.592;9.600;2022-12-07T09:46:44;23.63;;;15.45;;
20369;SDS011;10344;47.592;9.600;2022-12-07T09:49:16;21.77;;;14.55;;
20369;SDS011;10344;47.592;9.600;2022-12-07T09:51:44;21.98;;;14.50;;
20369;SDS011;10344;47.592;9.600;2022-12-07T09:54:15;19.83;;;14.70;;
20369;SDS011;10344;47.592;9.600;2022-12-07T09:56:42;21.17;;;14.90;;
20369;SDS011;10344;47.592;9.600;2022-12-07T09:59:09;20.55;;;14.25;;
20369;SDS011;10344;47.592;9.600;2022-12-07T10:01:43;20.90;;;15.20;;
20369;SDS011;10344;47.592;9.600;2022-12-07T10:04:16;20.98;;;15.30;;
20369;SDS011;10344;47.592;9.600;2022-12-07T10:06:47;18.67;;;14.32;;
20369;SDS011;10344;47.592;9.600;2022-12-07T10:09:16;19.63;;;14.63;;
20369;SDS011;10344;47.592;9.600;2022-12-07T10:12:00;20.15;;;13.25;;
20369;SDS011;10344;47.592;9.600;2022-12-07T10:14:32;22.30;;;14.80;;
20369;SDS011;10344;47.592;9.600;2022-12-07T10:17:00;16.63;;;13.57;;
20369;SDS011;10344;47.592;9.600;2022-12-07T10:19:29;18.30;;;13.25;;
20369;SDS011;10344;47.592;9.600;2022-12-07T10:21:59;19.63;;;13.68;;
20369;SDS011;10344;47.592;9.600;2022-12-07T10:24:25;20.40;;;14.43;;
20369;SDS011;10344;47.592;9.600;2022-12-07T10:26:51;17.30;;;13.13;;
20369;SDS011;10344;47.592;9.600;2022-12-07T10:29:31;17.63;;;12.77;;
20369;SDS011;10344;47.592;9.600;2022-12-07T10:32:00;19.33;;;13.55;;
20369;SDS011;10344;47.592;9.600;2022-12-07T10:34:30;19.63;;;13.70;;
20369;SDS011;10344;47.592;9.600;2022-12-07T10:39:45;19.15;;;13.43;;
20369;SDS011;10344;47.592;9.600;2022-12-07T10:42:25;18.00;;;13.20;;
20369;SDS011;10344;47.592;9.600;2022-12-07T10:47:44;18.33;;;12.35;;
20369;SDS011;10344;47.592;9.600;2022-12-07T10:50:43;16.70;;;12.17;;
20369;SDS011;10344;47.592;9.600;2022-12-07T11:01:14;16.33;;;10.73;;
20369;SDS011;10344;47.592;9.600;2022-12-07T11:06:27;13.50;;;10.00;;
20369;SDS011;10344;47.592;9.600;2022-12-07T11:17:31;13.38;;;10.50;;
20369;SDS011;10344;47.592;9.600;2022-12-07T11:37:16;14.70;;;10.87;;
20369;SDS011;10344;47.592;9.600;2022-12-07T11:39:50;15.90;;;11.03;;
20369;SDS011;10344;47.592;9.600;2022-12-07T11:42:21;13.77;;;10.43;;
20369;SDS011;10344;47.592;9.600;2022-12-07T11:45:35;14.00;;;10.50;;
20369;SDS011;10344;47.592;9.600;2022-12-07T11:47:55;16.02;;;11.93;;
20369;SDS011;10344;47.592;9.600;2022-12-07T11:55:44;14.38;;;10.77;;
20369;SDS011;10344;47.592;9.600;2022-12-07T12:01:14;15.77;;;10.90;;
20369;SDS011;10344;47.592;9.600;2022-12-07T12:04:19;16.45;;;11.45;;
20369;SDS011;10344;47.592;9.600;2022-12-07T12:06:50;17.38;;;11.63;;
20369;SDS011;10344;47.592;9.600;2022-12-07T12:20:32;15.05;;;10.85;;
20369;SDS011;10344;47.592;9.600;2022-12-07T12:23:21;18.25;;;11.82;;
20369;SDS011;10344;47.592;9.600;2022-12-07T12:25:58;15.45;;;11.77;;
20369;SDS011;10344;47.592;9.600;2022-12-07T12:28:35;15.20;;;11.15;;
20369;SDS011;10344;47.592;9.600;2022-12-07T12:33:49;16.85;;;11.60;;
20369;SDS011;10344;47.592;9.600;2022-12-07T12:36:22;17.67;;;11.88;;
20369;SDS011;10344;47.592;9.600;2022-12-07T12:57:36;16.13;;;11.30;;
20369;SDS011;10344;47.592;9.600;2022-12-07T13:02:55;17.88;;;11.93;;
20369;SDS011;10344;47.592;9.600;2022-12-07T13:05:27;17.52;;;12.25;;
20369;SDS011;10344;47.592;9.600;2022-12-07T13:15:36;16.42;;;11.13;;
20369;SDS011;10344;47.592;9.600;2022-12-07T13:20:56;16.45;;;11.68;;
20369;SDS011;10344;47.592;9.600;2022-12-07T13:23:29;15.98;;;11.43;;
20369;SDS011;10344;47.592;9.600;2022-12-07T13:26:15;19.27;;;12.48;;
20369;SDS011;10344;47.592;9.600;2022-12-07T13:29:12;17.38;;;12.05;;
20369;SDS011;10344;47.592;9.600;2022-12-07T13:31:37;15.67;;;10.97;;
20369;SDS011;10344;47.592;9.600;2022-12-07T13:36:51;18.13;;;12.13;;
20369;SDS011;10344;47.592;9.600;2022-12-07T13:39:21;15.27;;;11.88;;
20369;SDS011;10344;47.592;9.600;2022-12-07T13:41:50;17.65;;;13.00;;
20369;SDS011;10344;47.592;9.600;2022-12-07T13:44:18;18.55;;;12.85;;
20369;SDS011;10344;47.592;9.600;2022-12-07T13:46:52;19.67;;;12.90;;
20369;SDS011;10344;47.592;9.600;2022-12-07T13:49:28;17.55;;;12.10;;
20369;SDS011;10344;47.592;9.600;2022-12-07T13:54:56;18.05;;;11.77;;
20369;SDS011;10344;47.592;9.600;2022-12-07T13:57:32;19.00;;;12.68;;
20369;SDS011;10344;47.592;9.600;2022-12-07T14:00:00;18.50;;;12.98;;
20369;SDS011;10344;47.592;9.600;2022-12-07T14:05:09;17.55;;;12.18;;
20369;SDS011;10344;47.592;9.600;2022-12-07T14:12:55;21.83;;;14.10;;
20369;SDS011;10344;47.592;9.600;2022-12-07T14:15:24;18.65;;;12.85;;
20369;SDS011;10344;47.592;9.600;2022-12-07T14:17:56;17.80;;;12.43;;
20369;SDS011;10344;47.592;9.600;2022-12-07T14:23:02;18.88;;;12.35;;
20369;SDS011;10344;47.592;9.600;2022-12-07T14:25:44;19.63;;;13.45;;
20369;SDS011;10344;47.592;9.600;2022-12-07T14:28:25;19.42;;;13.10;;
20369;SDS011;10344;47.592;9.600;2022-12-07T14:30:55;19.35;;;13.32;;
20369;SDS011;10344;47.592;9.600;2022-12-07T14:33:21;19.50;;;12.60;;
20369;SDS011;10344;47.592;9.600;2022-12-07T14:35:48;20.15;;;13.18;;
20369;SDS011;10344;47.592;9.600;2022-12-07T14:38:20;18.90;;;13.15;;
20369;SDS011;10344;47.592;9.600;2022-12-07T14:40:49;19.60;;;13.50;;
20369;SDS011;10344;47.592;9.600;2022-12-07T14:43:16;21.27;;;13.80;;
20369;SDS011;10344;47.592;9.600;2022-12-07T14:45:43;21.17;;;13.60;;
20369;SDS011;10344;47.592;9.600;2022-12-07T14:48:13;21.10;;;13.87;;
20369;SDS011;10344;47.592;9.600;2022-12-07T14:50:50;22.77;;;15.23;;
20369;SDS011;10344;47.592;9.600;2022-12-07T14:53:18;21.90;;;14.00;;
20369;SDS011;10344;47.592;9.600;2022-12-07T14:55:51;22.50;;;14.45;;
20369;SDS011;10344;47.592;9.600;2022-12-07T14:58:22;24.10;;;14.93;;
20369;SDS011;10344;47.592;9.600;2022-12-07T15:00:47;22.10;;;14.30;;
20369;SDS011;10344;47.592;9.600;2022-12-07T15:03:13;20.67;;;13.60;;
20369;SDS011;10344;47.592;9.600;2022-12-07T15:05:39;18.20;;;12.87;;
20369;SDS011;10344;47.592;9.600;2022-12-07T15:08:11;17.67;;;12.20;;
20369;SDS011;10344;47.592;9.600;2022-12-07T15:10:37;19.98;;;13.63;;
20369;SDS011;10344;47.592;9.600;2022-12-07T15:13:05;20.65;;;13.80;;
20369;SDS011;10344;47.592;9.600;2022-12-07T15:15:50;20.60;;;14.02;;
20369;SDS011;10344;47.592;9.600;2022-12-07T15:18:18;22.17;;;15.05;;
20369;SDS011;10344;47.592;9.600;2022-12-07T15:20:45;20.70;;;14.20;;
20369;SDS011;10344;47.592;9.600;2022-12-07T15:23:12;22.07;;;14.77;;
20369;SDS011;10344;47.592;9.600;2022-12-07T15:25:45;22.10;;;15.07;;
20369;SDS011;10344;47.592;9.600;2022-12-07T15:28:16;22.67;;;15.77;;
20369;SDS011;10344;47.592;9.600;2022-12-07T15:30:43;23.95;;;15.23;;
20369;SDS011;10344;47.592;9.600;2022-12-07T15:33:09;21.35;;;14.23;;
20369;SDS011;10344;47.592;9.600;2022-12-07T15:35:43;20.42;;;14.20;;
20369;SDS011;10344;47.592;9.600;2022-12-07T15:38:12;22.80;;;14.98;;
20369;SDS011;10344;47.592;9.600;2022-12-07T15:40:37;20.10;;;14.48;;
20369;SDS011;10344;47.592;9.600;2022-12-07T15:43:04;18.77;;;13.52;;
20369;SDS011;10344;47.592;9.600;2022-12-07T15:45:30;23.38;;;14.65;;
20369;SDS011;10344;47.592;9.600;2022-12-07T15:47:55;21.42;;;14.43;;
20369;SDS011;10344;47.592;9.600;2022-12-07T15:50:21;20.33;;;13.82;;
20369;SDS011;10344;47.592;9.600;2022-12-07T15:52:49;19.48;;;12.77;;
20369;SDS011;10344;47.592;9.600;2022-12-07T15:55:15;20.45;;;13.43;;
20369;SDS011;10344;47.592;9.600;2022-12-07T15:57:43;21.15;;;13.55;;
20369;SDS011;10344;47.592;9.600;2022-12-07T16:00:09;21.40;;;15.00;;
20369;SDS011;10344;47.592;9.600;2022-12-07T16:02:36;20.37;;;14.43;;
20369;SDS011;10344;47.592;9.600;2022-12-07T16:05:02;20.85;;;14.75;;
20369;SDS011;10344;47.592;9.600;2022-12-07T16:07:27;23.17;;;14.70;;
20369;SDS011;10344;47.592;9.600;2022-12-07T16:09:53;19.73;;;14.00;;
20369;SDS011;10344;47.592;9.600;2022-12-07T16:12:19;22.05;;;14.43;;
20369;SDS011;10344;47.592;9.600;2022-12-07T16:14:47;19.80;;;13.32;;
20369;SDS011;10344;47.592;9.600;2022-12-07T16:17:15;22.15;;;15.35;;
20369;SDS011;10344;47.592;9.600;2022-12-07T16:19:40;23.27;;;16.07;;
20369;SDS011;10344;47.592;9.600;2022-12-07T16:22:06;30.13;;;20.60;;
20369;SDS011;10344;47.592;9.600;2022-12-07T16:24:34;24.58;;;16.83;;
20369;SDS011;10344;47.592;9.600;2022-12-07T16:26:59;25.17;;;16.80;;
20369;SDS011;10344;47.592;9.600;2022-12-07T16:29:25;24.08;;;15.68;;
20369;SDS011;10344;47.592;9.600;2022-12-07T16:31:51;29.08;;;17.75;;
20369;SDS011;10344;47.592;9.600;2022-12-07T16:34:17;24.73;;;16.10;;
20369;SDS011;10344;47.592;9.600;2022-12-07T16:36:45;26.27;;;17.48;;
20369;SDS011;10344;47.592;9.600;2022-12-07T16:39:11;23.80;;;16.20;;
20369;SDS011;10344;47.592;9.600;2022-12-07T16:41:37;22.88;;;16.58;;
20369;SDS011;10344;47.592;9.600;2022-12-07T16:44:04;25.47;;;16.33;;
20369;SDS011;10344;47.592;9.600;2022-12-07T16:46:31;25.10;;;16.88;;
20369;SDS011;10344;47.592;9.600;2022-12-07T16:48:58;22.38;;;16.08;;
20369;SDS011;10344;47.592;9.600;2022-12-07T16:51:25;19.53;;;13.47;;
20369;SDS011;10344;47.592;9.600;2022-12-07T16:53:52;22.52;;;14.98;;